Time;durP1;ratioP1;P1;durP2;ratioP2;P2;SDS_P1;SDS_P2;PMS_P1;PMS_P2;Temp;Humidity;BMP_temperature;BMP_pressure;BME280_temperature;BME280_humidity;BME280_pressure;Samples;Min_cycle;Max_cycle;Signal;HPM_P1;HPM_P2
2022/09/28 00:01:13;;;;;;;;;0.33;0.33;;;;;16.29;80.52;36832.34;4993084;28;45538;-76
2022/09/28 00:03:38;;;;;;;;;1.67;0.00;;;;;16.24;80.49;36562.06;4986181;28;46125;-76
2022/09/28 00:06:06;;;;;;;;;0.00;0.00;;;;;16.29;80.24;37147.34;4972610;28;45517;-76
2022/09/28 00:08:33;;;;;;;;;0.00;0.00;;;;;16.28;80.31;37271.09;4973731;28;45405;-77
2022/09/28 00:11:00;;;;;;;;;0.00;0.00;;;;;16.29;80.23;37279.38;4991397;28;45571;-77
2022/09/28 00:13:27;;;;;;;;;0.67;0.00;;;;;16.27;79.67;37722.78;4991202;28;46732;-76
2022/09/28 00:16:03;;;;;;;;;0.00;0.00;;;;;16.22;80.54;37312.09;4990349;28;46467;-76
2022/09/28 00:18:29;;;;;;;;;0.00;0.00;;;;;16.26;79.74;38029.53;4993039;28;45384;-77
2022/09/28 00:21:07;;;;;;;;;1.00;0.00;;;;;16.27;80.15;37317.75;4974546;28;45611;-77
2022/09/28 00:23:34;;;;;;;;;0.00;0.00;;;;;16.18;79.99;37815.34;4990947;28;46158;-76
2022/09/28 00:26:05;;;;;;;;;0.67;0.67;;;;;16.14;79.59;38768.28;4992646;28;45424;-77
2022/09/28 00:28:31;;;;;;;;;2.00;1.00;;;;;16.11;79.78;38456.13;4995469;28;45523;-76
2022/09/28 00:30:57;;;;;;;;;0.00;0.00;;;;;16.19;79.61;38321.31;4992155;28;45584;-76
2022/09/28 00:33:23;;;;;;;;;0.33;0.33;;;;;16.22;79.87;38329.00;4976673;28;47055;-76
2022/09/28 00:35:56;;;;;;;;;0.00;0.00;;;;;16.22;80.04;37632.38;4992650;28;45337;-77
2022/09/28 00:38:26;;;;;;;;;0.00;0.00;;;;;16.17;79.50;38330.88;4989568;28;47370;-76
2022/09/28 00:40:51;;;;;;;;;0.00;0.00;;;;;16.20;79.50;38253.50;4992471;28;45538;-76
2022/09/28 00:43:19;;;;;;;;;3.33;0.67;;;;;16.16;79.71;38343.09;4991500;27;45898;-76
2022/09/28 00:45:51;;;;;;;;;1.33;0.00;;;;;16.19;79.40;39052.06;4991912;28;45334;-76
2022/09/28 00:48:16;;;;;;;;;0.67;0.67;;;;;16.13;79.17;39262.38;4990665;28;45537;-76
2022/09/28 00:50:42;;;;;;;;;0.33;0.33;;;;;16.19;79.66;38488.44;4992276;28;45383;-76
2022/09/28 00:53:17;;;;;;;;;0.67;0.00;;;;;16.18;79.38;39138.78;4988356;28;46896;-76
2022/09/28 00:56:02;;;;;;;;;0.67;0.67;;;;;16.15;79.13;39269.06;4973023;28;45965;-76
2022/09/28 00:58:35;;;;;;;;;0.67;0.67;;;;;16.12;78.71;39846.88;4992615;28;45406;-76
2022/09/28 01:01:01;;;;;;;;;0.00;0.00;;;;;16.12;78.67;39939.56;4992073;28;45395;-76
2022/09/28 01:03:27;;;;;;;;;0.00;0.00;;;;;16.08;79.08;39505.09;4975464;28;47818;-76
2022/09/28 01:05:56;;;;;;;;;0.67;0.67;;;;;15.93;78.99;39590.56;4991506;28;45444;-76
2022/09/28 01:08:26;;;;;;;;;0.00;0.00;;;;;16.01;79.17;39624.97;4992683;28;46703;-76
2022/09/28 01:10:52;;;;;;;;;0.00;0.00;;;;;16.04;79.03;39939.91;4993614;28;45465;-76
2022/09/28 01:13:19;;;;;;;;;1.33;0.00;;;;;15.98;79.21;39628.16;4992765;28;46385;-76
2022/09/28 01:15:58;;;;;;;;;0.00;0.00;;;;;16.04;79.02;39936.91;4992725;27;45576;-76
2022/09/28 01:19:02;;;;;;;;;0.00;0.00;;;;;16.08;79.24;39089.44;4991419;28;45415;-76
2022/09/28 01:21:27;;;;;;;;;0.33;0.33;;;;;16.10;79.33;38929.31;4992761;28;45347;-76
2022/09/28 01:23:53;;;;;;;;;0.00;0.00;;;;;16.11;80.12;37934.66;4986345;28;46403;-76
2022/09/28 01:26:45;;;;;;;;;0.00;0.00;;;;;16.10;79.63;38672.88;4992906;28;45465;-76
2022/09/28 01:29:43;;;;;;;;;0.00;0.00;;;;;16.07;79.93;38265.47;4973594;28;45475;-76
2022/09/28 01:32:44;;;;;;;;;1.33;0.33;;;;;16.09;79.75;38452.13;4940267;28;45517;-76
2022/09/28 01:35:15;;;;;;;;;2.00;0.67;;;;;16.08;79.77;38432.91;4894031;28;46621;-76
2022/09/28 01:37:52;;;;;;;;;0.00;0.00;;;;;16.06;79.47;38339.22;4893155;28;45555;-76
2022/09/28 01:40:21;;;;;;;;;0.67;0.67;;;;;16.06;79.84;37722.53;4894449;28;45570;-75
2022/09/28 01:42:53;;;;;;;;;0.67;0.67;;;;;16.04;79.91;38073.53;4895171;28;45542;-76
2022/09/28 01:45:27;;;;;;;;;0.67;0.67;;;;;16.04;80.05;37467.47;4895016;28;45568;-76
2022/09/28 01:47:59;;;;;;;;;1.67;0.33;;;;;15.94;80.29;37735.63;4893580;28;45831;-76
2022/09/28 01:50:29;;;;;;;;;0.67;0.67;;;;;16.07;79.78;37722.88;4893663;28;47001;-76
2022/09/28 01:53:11;;;;;;;;;0.00;0.00;;;;;15.94;80.16;37468.72;4893779;28;45562;-77
2022/09/28 01:55:42;;;;;;;;;0.00;0.00;;;;;16.03;80.28;37403.28;4893256;28;46414;-76
2022/09/28 01:58:13;;;;;;;;;3.00;0.00;;;;;16.04;80.10;37279.25;4891056;28;45406;-76
2022/09/28 02:00:44;;;;;;;;;0.33;0.33;;;;;16.00;80.65;36689.56;4893761;28;45455;-76
2022/09/28 02:03:28;;;;;;;;;1.67;0.33;;;;;16.05;80.10;37227.00;4907939;28;45510;-76
2022/09/28 02:05:59;;;;;;;;;0.67;0.67;;;;;15.99;80.03;36961.06;4888757;28;45748;-75
2022/09/28 02:08:40;;;;;;;;;1.00;1.00;;;;;16.08;80.74;36278.75;4916084;28;45357;-76
2022/09/28 02:11:13;;;;;;;;;1.33;0.00;;;;;16.09;80.16;36962.06;4989389;28;45532;-76
2022/09/28 02:13:44;;;;;;;;;0.67;0.67;;;;;16.00;80.34;36784.78;4992433;28;45240;-76
2022/09/28 02:16:24;;;;;;;;;0.67;0.33;;;;;15.99;80.19;36775.88;4990156;28;45611;-76
2022/09/28 02:18:50;;;;;;;;;0.00;0.00;;;;;16.04;80.36;36549.31;4990925;28;45519;-76
2022/09/28 02:21:24;;;;;;;;;2.00;0.67;;;;;16.11;79.87;37074.53;4991528;27;45393;-77
2022/09/28 02:24:20;;;;;;;;;1.00;1.00;;;;;16.07;79.89;37310.03;4990528;28;45497;-76
2022/09/28 02:26:49;;;;;;;;;0.67;0.67;;;;;16.06;80.06;37319.94;4991287;27;45592;-77
2022/09/28 02:29:14;;;;;;;;;1.00;0.67;;;;;16.08;79.58;37577.97;4973134;28;45380;-76
2022/09/28 02:31:40;;;;;;;;;1.00;0.67;;;;;16.00;79.88;37724.13;4992315;28;45401;-76
2022/09/28 02:34:05;;;;;;;;;1.67;0.00;;;;;16.02;79.81;37294.13;4992418;27;45432;-76
2022/09/28 02:36:32;;;;;;;;;0.00;0.00;;;;;16.08;80.22;36916.41;4972152;28;46136;-76
2022/09/28 02:39:01;;;;;;;;;0.33;0.33;;;;;16.01;79.82;37335.47;4989869;28;45424;-76
2022/09/28 02:41:35;;;;;;;;;0.33;0.33;;;;;16.05;79.87;37311.69;4991893;28;45464;-76
2022/09/28 02:44:12;;;;;;;;;0.67;0.67;;;;;16.06;79.72;37455.25;4992599;28;45527;-75
2022/09/28 02:46:58;;;;;;;;;1.33;0.67;;;;;16.03;79.61;37943.16;4975392;28;45412;-76
2022/09/28 02:49:39;;;;;;;;;0.67;0.67;;;;;16.04;79.50;38049.38;4993100;28;45444;-76
2022/09/28 02:52:19;;;;;;;;;0.00;0.00;;;;;16.03;79.01;38342.47;4993985;28;45499;-76
2022/09/28 02:55:11;;;;;;;;;3.00;0.67;;;;;16.00;79.29;38358.94;4974913;28;45526;-76
2022/09/28 02:57:51;;;;;;;;;2.00;0.67;;;;;15.91;79.22;38496.03;4983393;28;45690;-76
2022/09/28 03:00:20;;;;;;;;;1.33;1.33;;;;;16.03;79.06;39163.41;4984378;28;45477;-76
2022/09/28 03:02:50;;;;;;;;;0.00;0.00;;;;;15.95;78.78;39017.53;4991667;27;45517;-76
2022/09/28 03:05:48;;;;;;;;;2.33;0.67;;;;;15.93;78.77;38846.41;4991779;28;45708;-76
2022/09/28 03:08:31;;;;;;;;;1.00;1.00;;;;;15.98;79.04;39059.00;4991547;28;46259;-76
2022/09/28 03:11:22;;;;;;;;;0.67;0.67;;;;;15.95;78.77;39287.19;4991506;28;45316;-75
2022/09/28 03:13:48;;;;;;;;;1.00;1.00;;;;;15.78;78.73;39384.16;4987317;28;45675;-76
2022/09/28 03:16:18;;;;;;;;;2.33;1.33;;;;;15.82;78.90;39265.56;4994309;28;45354;-76
2022/09/28 03:18:44;;;;;;;;;0.67;0.67;;;;;15.93;78.92;39145.50;4993879;28;45370;-76
2022/09/28 03:21:11;;;;;;;;;2.00;1.33;;;;;15.91;79.16;39056.75;4990797;28;45390;-76
2022/09/28 03:23:37;;;;;;;;;2.67;1.00;;;;;15.89;78.78;39095.41;4990368;27;45337;-76
2022/09/28 03:26:02;;;;;;;;;1.33;0.67;;;;;15.87;79.21;38908.75;4984384;28;45504;-77
2022/09/28 03:28:28;;;;;;;;;0.67;0.67;;;;;15.87;79.17;39654.81;4989284;28;45432;-76
2022/09/28 03:30:54;;;;;;;;;1.67;0.67;;;;;15.88;78.93;39245.59;4988416;28;45373;-76
2022/09/28 03:33:19;;;;;;;;;0.67;0.67;;;;;15.81;79.16;39076.63;4990627;28;45377;-76
2022/09/28 03:35:47;;;;;;;;;4.33;0.67;;;;;15.91;78.89;39295.34;4991322;28;45275;-76
2022/09/28 03:38:12;;;;;;;;;0.67;0.67;;;;;15.88;78.91;39396.13;4990362;28;46988;-76
2022/09/28 03:40:38;;;;;;;;;1.33;0.00;;;;;15.87;78.85;39249.84;4989987;28;45455;-76
2022/09/28 03:43:03;;;;;;;;;1.67;0.67;;;;;15.76;79.00;39261.38;4989115;28;45532;-75
2022/09/28 03:45:28;;;;;;;;;0.67;0.33;;;;;15.79;78.65;39379.56;4989978;28;45444;-76
2022/09/28 03:47:54;;;;;;;;;1.00;1.00;;;;;15.65;78.97;38920.31;4974153;28;46008;-75
2022/09/28 03:50:19;;;;;;;;;0.67;0.67;;;;;15.77;78.72;39111.22;4986867;28;45540;-76
2022/09/28 03:52:44;;;;;;;;;0.67;0.67;;;;;15.79;79.22;38786.78;4991200;28;47143;-76
2022/09/28 03:55:10;;;;;;;;;0.67;0.67;;;;;15.77;78.54;39058.31;4989534;28;45466;-76
2022/09/28 03:57:36;;;;;;;;;3.00;0.67;;;;;15.58;79.01;38894.63;4988794;28;46201;-75
2022/09/28 04:00:03;;;;;;;;;1.00;1.00;;;;;15.65;79.00;38758.91;4989089;28;45508;-76
2022/09/28 04:02:29;;;;;;;;;2.00;2.00;;;;;15.72;79.23;37980.34;4988937;27;45672;-75
2022/09/28 04:04:55;;;;;;;;;2.67;1.33;;;;;15.68;79.34;38134.03;4991175;28;45461;-75
2022/09/28 04:07:20;;;;;;;;;2.33;1.33;;;;;15.67;79.01;38357.84;4993430;28;45362;-76
2022/09/28 04:09:45;;;;;;;;;4.00;1.67;;;;;15.55;79.45;38025.03;4990522;27;46929;-75
2022/09/28 04:12:11;;;;;;;;;1.00;1.00;;;;;15.58;79.07;38114.34;4992051;28;45504;-74
2022/09/28 04:14:36;;;;;;;;;1.67;1.67;;;;;15.48;78.95;38237.13;4993295;28;45404;-78
2022/09/28 04:17:01;;;;;;;;;1.67;1.67;;;;;15.71;78.86;38704.53;4975328;28;47276;-75
2022/09/28 04:19:27;;;;;;;;;1.67;1.67;;;;;15.72;78.89;38300.44;4982244;28;46261;-76
2022/09/28 04:21:52;;;;;;;;;3.00;2.00;;;;;15.73;78.86;38470.78;4991434;28;45374;-75
2022/09/28 04:24:19;;;;;;;;;1.00;1.00;;;;;15.66;78.91;38582.38;4984807;28;45489;-76
2022/09/28 04:26:44;;;;;;;;;4.00;2.33;;;;;15.74;78.87;38809.78;4967439;28;47760;-75
2022/09/28 04:29:16;;;;;;;;;3.00;2.00;;;;;15.76;79.25;38271.44;4989991;28;45625;-75
2022/09/28 04:31:50;;;;;;;;;1.67;1.67;;;;;15.75;79.10;38580.63;4988183;28;45605;-78
2022/09/28 04:34:18;;;;;;;;;1.67;1.67;;;;;15.71;78.86;38577.53;4991397;28;45463;-75
2022/09/28 04:36:45;;;;;;;;;0.67;0.67;;;;;15.71;79.10;38559.00;4991417;28;45774;-74
2022/09/28 04:39:12;;;;;;;;;2.00;1.00;;;;;15.73;78.60;38976.16;4991114;28;45493;-75
2022/09/28 04:41:37;;;;;;;;;2.50;2.50;;;;;15.65;78.60;39089.28;4987039;28;45526;-75
2022/09/28 04:44:03;;;;;;;;;7.00;4.67;;;;;15.69;78.58;38941.59;4988320;28;47109;-75
2022/09/28 04:46:28;;;;;;;;;2.00;2.00;;;;;15.69;79.19;38616.19;4983238;28;45618;-74
2022/09/28 04:48:54;;;;;;;;;1.67;1.67;;;;;15.71;79.40;37913.53;4957039;28;45575;-75
2022/09/28 04:51:20;;;;;;;;;1.00;1.00;;;;;15.67;79.34;38001.09;4990258;28;45520;-75
2022/09/28 04:53:45;;;;;;;;;2.00;2.00;;;;;15.68;79.26;37880.09;4990183;28;45557;-74
2022/09/28 04:56:13;;;;;;;;;1.67;1.67;;;;;15.72;79.15;38027.97;4988052;28;46878;-75
2022/09/28 04:58:39;;;;;;;;;5.33;3.67;;;;;15.69;79.45;37793.16;4985032;28;45311;-76
2022/09/28 05:01:08;;;;;;;;;3.67;3.00;;;;;15.76;79.69;37544.28;4990737;28;45553;-75
2022/09/28 05:03:33;;;;;;;;;4.00;3.00;;;;;15.78;79.54;37881.25;4986350;28;45585;-75
2022/09/28 05:05:59;;;;;;;;;6.33;2.67;;;;;15.78;79.17;38256.91;4989149;28;46081;-75
2022/09/28 05:08:26;;;;;;;;;1.67;1.67;;;;;15.79;79.39;37913.66;4988233;28;45533;-75
2022/09/28 05:10:59;;;;;;;;;4.33;3.00;;;;;15.79;79.31;38231.50;4984950;28;45508;-75
2022/09/28 05:13:25;;;;;;;;;3.00;3.00;;;;;15.77;78.66;38600.53;4985312;28;45429;-75
2022/09/28 05:15:53;;;;;;;;;3.00;2.33;;;;;15.69;78.59;38589.72;4983522;27;45362;-75
2022/09/28 05:18:19;;;;;;;;;3.00;3.00;;;;;15.77;79.04;38783.09;4994582;28;45522;-75
2022/09/28 05:20:44;;;;;;;;;7.33;4.00;;;;;15.63;78.63;38887.50;4995541;28;45443;-75
2022/09/28 05:23:11;;;;;;;;;5.00;5.00;;;;;15.80;78.52;38581.44;4976615;28;45752;-75
2022/09/28 05:25:37;;;;;;;;;5.33;5.33;;;;;15.81;78.65;38682.31;4984886;28;46227;-74
2022/09/28 05:28:03;;;;;;;;;4.00;4.00;;;;;15.67;78.25;39260.00;4988552;28;45321;-78
2022/09/28 05:30:28;;;;;;;;;2.00;2.00;;;;;15.77;78.52;39328.22;4975066;28;45484;-78
2022/09/28 05:32:54;;;;;;;;;4.67;4.00;;;;;15.66;78.26;39341.31;4991573;28;45600;-76
2022/09/28 05:35:19;;;;;;;;;4.00;3.00;;;;;15.74;78.45;39262.63;4979993;28;45364;-76
2022/09/28 05:37:45;;;;;;;;;7.00;4.00;;;;;15.75;78.51;39316.25;4958240;28;45830;-76
2022/09/28 05:40:11;;;;;;;;;3.33;3.33;;;;;15.75;78.10;39485.25;4973040;28;45243;-77
2022/09/28 05:42:36;;;;;;;;;5.33;4.00;;;;;15.66;78.34;39568.88;4958345;28;45374;-77
2022/09/28 05:45:02;;;;;;;;;8.00;8.00;;;;;15.63;78.55;39305.53;4957737;28;47153;-77
2022/09/28 05:47:28;;;;;;;;;7.00;7.00;;;;;15.73;78.71;39346.59;4975386;28;45351;-77
2022/09/28 05:49:54;;;;;;;;;5.67;5.67;;;;;15.60;78.61;39250.16;4975515;28;45340;-77
2022/09/28 05:52:19;;;;;;;;;7.00;6.00;;;;;15.62;78.44;39227.75;4975817;28;45408;-77
2022/09/28 05:54:45;;;;;;;;;8.00;5.33;;;;;15.70;78.47;39466.22;4975644;28;46199;-77
2022/09/28 05:57:12;;;;;;;;;3.33;3.00;;;;;15.71;78.88;38929.41;4975189;28;45373;-77
2022/09/28 05:59:37;;;;;;;;;8.33;7.00;;;;;15.72;78.55;39337.59;4975555;28;45482;-77
2022/09/28 06:02:03;;;;;;;;;6.33;6.33;;;;;15.70;78.94;38942.31;4958144;28;45545;-77
2022/09/28 06:04:29;;;;;;;;;5.00;4.67;;;;;15.72;78.67;39096.81;4975132;28;45632;-77
2022/09/28 06:06:55;;;;;;;;;4.33;4.33;;;;;15.64;78.84;39094.22;4957636;28;45453;-77
2022/09/28 06:09:22;;;;;;;;;4.00;3.67;;;;;15.67;79.09;38712.34;4975684;28;45469;-77
2022/09/28 06:11:48;;;;;;;;;8.33;8.33;;;;;15.71;79.09;38752.16;4975600;28;45307;-78
2022/09/28 06:14:14;;;;;;;;;7.00;7.00;;;;;15.75;79.15;38236.34;4974959;28;46520;-79
2022/09/28 06:16:39;;;;;;;;;5.67;5.67;;;;;15.74;78.67;38569.03;4975083;28;45410;-79
2022/09/28 06:19:07;;;;;;;;;7.00;5.67;;;;;15.71;78.34;39228.41;4957804;28;45353;-79
2022/09/28 06:21:32;;;;;;;;;7.00;7.00;;;;;15.72;78.27;39626.41;4975801;28;45409;-79
2022/09/28 06:24:01;;;;;;;;;13.33;12.00;;;;;15.74;78.52;39378.72;4974999;28;46300;-79
2022/09/28 06:26:26;;;;;;;;;11.00;9.33;;;;;15.68;78.25;39755.88;4975061;28;45307;-79
2022/09/28 06:28:51;;;;;;;;;9.00;7.33;;;;;15.71;78.49;40080.53;4957541;28;45382;-76
2022/09/28 06:31:18;;;;;;;;;6.67;6.67;;;;;15.75;78.01;40120.44;4975532;28;45400;-76
2022/09/28 06:33:44;;;;;;;;;6.00;5.33;;;;;15.76;78.40;39935.88;4974971;28;45397;-81
2022/09/28 06:36:09;;;;;;;;;5.00;5.00;;;;;15.59;78.10;40151.72;4974990;28;45301;-80
2022/09/28 06:38:35;;;;;;;;;6.33;6.33;;;;;15.79;77.95;40346.00;4962781;28;45532;-80
2022/09/28 06:41:00;;;;;;;;;5.67;5.67;;;;;15.81;78.20;40291.84;4995058;28;45334;-76
2022/09/28 06:43:26;;;;;;;;;4.67;3.67;;;;;15.79;78.02;40710.97;4993956;28;49416;-79
2022/09/28 06:45:52;;;;;;;;;7.33;3.00;;;;;15.80;77.52;40974.19;4976623;28;45410;-78
2022/09/28 06:48:18;;;;;;;;;3.00;3.00;;;;;15.71;77.56;40617.84;4994714;28;45417;-76
2022/09/28 06:50:44;;;;;;;;;2.33;2.33;;;;;15.74;77.62;40704.72;4995035;28;45329;-78
2022/09/28 06:53:12;;;;;;;;;3.33;2.33;;;;;15.84;77.69;41143.53;4994183;28;46091;-78
2022/09/28 06:55:47;;;;;;;;;2.67;2.67;;;;;15.87;77.85;40793.53;4994388;28;45342;-78
2022/09/28 06:58:16;;;;;;;;;2.67;2.67;;;;;15.94;77.87;41036.59;4994113;28;45373;-78
2022/09/28 07:00:41;;;;;;;;;2.67;2.67;;;;;15.95;77.89;41315.78;4994495;28;45460;-78
2022/09/28 07:03:12;;;;;;;;;3.67;2.33;;;;;15.91;77.09;41831.56;4994119;28;45485;-78
2022/09/28 07:05:42;;;;;;;;;2.33;2.33;;;;;16.01;77.31;41635.41;4994450;28;45388;-78
2022/09/28 07:08:07;;;;;;;;;3.33;3.33;;;;;16.06;77.33;41704.94;4994331;28;45373;-78
2022/09/28 07:10:33;;;;;;;;;4.67;3.00;;;;;16.09;77.24;42096.25;4994401;28;45417;-78
2022/09/28 07:13:01;;;;;;;;;5.00;3.00;;;;;16.09;76.97;42308.25;4993779;28;46459;-78
2022/09/28 07:15:28;;;;;;;;;1.00;1.00;;;;;16.11;76.77;42330.94;4994042;28;45290;-78
2022/09/28 07:18:00;;;;;;;;;1.67;1.67;;;;;16.07;76.19;43099.06;4993827;28;45404;-78
2022/09/28 07:20:28;;;;;;;;;2.33;2.33;;;;;16.08;76.16;43150.16;4994440;28;45444;-76
2022/09/28 07:22:59;;;;;;;;;1.00;1.00;;;;;16.13;76.36;43697.78;4993824;28;45264;-78
2022/09/28 07:25:24;;;;;;;;;1.67;1.67;;;;;16.15;76.25;43601.22;4994042;28;45399;-78
2022/09/28 07:27:54;;;;;;;;;7.00;4.67;;;;;16.16;76.06;44171.59;4993810;28;45286;-79
2022/09/28 07:30:19;;;;;;;;;2.00;2.00;;;;;16.31;75.85;44132.53;4994219;28;45371;-78
2022/09/28 07:32:45;;;;;;;;;1.67;1.67;;;;;16.38;75.11;44580.94;4993725;28;46317;-79
2022/09/28 07:35:10;;;;;;;;;1.00;1.00;;;;;16.43;74.69;44858.50;4977719;28;45776;-78
2022/09/28 07:37:36;;;;;;;;;3.00;1.67;;;;;16.42;75.05;45387.91;4979599;28;45653;-79
2022/09/28 07:42:48;;;;;;;;;2.00;2.00;;;;;16.47;74.58;46315.44;4996211;28;45400;-78
2022/09/28 07:45:13;;;;;;;;;2.00;2.00;;;;;16.62;74.66;46518.41;4996727;28;45389;-79
2022/09/28 07:47:39;;;;;;;;;3.33;2.00;;;;;16.68;73.75;46452.03;4996954;28;45429;-75
2022/09/28 07:50:05;;;;;;;;;6.33;2.00;;;;;16.76;73.68;46712.69;4996795;28;45293;-75
2022/09/28 07:52:30;;;;;;;;;2.00;2.00;;;;;16.78;73.55;46571.34;4996376;28;46115;-75
2022/09/28 07:54:55;;;;;;;;;1.67;1.67;;;;;16.84;72.66;46711.72;4996405;28;45425;-75
2022/09/28 07:57:21;;;;;;;;;2.00;2.00;;;;;16.85;72.19;45567.59;4996359;28;45317;-75
2022/09/28 07:59:48;;;;;;;;;2.33;2.33;;;;;16.81;72.12;45179.44;4996835;28;45260;-75
2022/09/28 08:02:17;;;;;;;;;2.00;2.00;;;;;17.02;72.33;43793.84;4994934;28;47433;-75
2022/09/28 08:04:42;;;;;;;;;3.00;3.00;;;;;17.06;71.53;42167.19;4996491;28;45522;-72
2022/09/28 08:07:09;;;;;;;;;4.00;2.67;;;;;17.13;70.93;40365.41;4995237;28;45451;-75
2022/09/28 08:09:35;;;;;;;;;2.33;1.00;;;;;17.17;70.20;27841.91;4996939;28;45314;-75
2022/09/28 08:12:00;;;;;;;;;1.00;1.00;;;;;17.21;70.06;23535.44;4996312;28;45373;-72
2022/09/28 08:14:27;;;;;;;;;1.33;1.33;;;;;17.21;69.98;29547.78;4996482;28;45372;-75
2022/09/28 08:16:52;;;;;;;;;4.00;2.00;;;;;17.18;70.43;34941.63;4996541;28;45310;-75
2022/09/28 08:19:18;;;;;;;;;3.00;2.00;;;;;17.08;69.61;25868.38;4978874;28;45358;-74
2022/09/28 08:21:46;;;;;;;;;3.00;1.00;;;;;17.25;69.58;26045.47;4994906;28;47263;-75
2022/09/28 08:24:14;;;;;;;;;3.00;3.00;;;;;17.28;69.32;26472.34;4996241;28;45398;-75
2022/09/28 08:26:39;;;;;;;;;7.33;4.67;;;;;17.28;69.49;20189.78;4995749;28;45464;-75
2022/09/28 08:29:05;;;;;;;;;2.00;2.00;;;;;17.40;69.73;28070.34;4996325;28;45521;-75
2022/09/28 08:31:30;;;;;;;;;2.67;1.00;;;;;17.49;68.63;14360.91;4996121;28;45322;-74
2022/09/28 08:33:56;;;;;;;;;0.00;0.00;;;;;17.63;67.71;-2614.19;4996169;28;45287;-75
2022/09/28 08:36:22;;;;;;;;;3.67;3.33;;;;;17.64;67.68;-5121.06;4996175;28;45227;-75
2022/09/28 08:38:48;;;;;;;;;1.33;1.33;;;;;17.70;67.58;930.09;4996357;28;45326;-75
2022/09/28 08:41:23;;;;;;;;;3.33;1.00;;;;;17.72;66.80;-15460.81;4995713;28;45425;-75
2022/09/28 08:43:55;;;;;;;;;2.33;1.00;;;;;17.72;67.46;-6913.38;4995658;28;45368;-75
2022/09/28 08:46:25;;;;;;;;;1.67;0.67;;;;;17.84;67.49;3232.22;4977192;28;45360;-75
2022/09/28 08:49:15;;;;;;;;;2.33;1.00;;;;;17.98;67.23;-7402.94;4996167;28;45462;-73
2022/09/28 08:51:57;;;;;;;;;3.00;2.00;;;;;18.10;66.83;-14753.13;4978259;28;48062;-75
2022/09/28 08:54:44;;;;;;;;;5.67;2.00;;;;;18.13;66.07;-19693.13;4994136;28;45446;-75
2022/09/28 08:57:36;;;;;;;;;2.00;2.00;;;;;18.18;66.06;-19694.34;4995636;28;45302;-76
2022/09/28 09:00:04;;;;;;;;;1.67;1.67;;;;;18.34;65.65;-19698.63;4996131;28;45368;-75
2022/09/28 09:02:33;;;;;;;;;0.00;0.00;;;;;18.52;65.01;-19703.28;4995275;28;46181;-75
2022/09/28 09:05:03;;;;;;;;;1.00;1.00;;;;;18.61;63.84;-19705.56;4995476;28;45293;-73
2022/09/28 09:07:50;;;;;;;;;1.00;1.00;;;;;18.61;62.58;-19705.44;4995914;28;45373;-75
2022/09/28 09:10:28;;;;;;;;;1.00;1.00;;;;;18.62;63.10;-19705.81;4996001;28;45498;-75
2022/09/28 09:13:13;;;;;;;;;1.33;1.00;;;;;18.63;62.17;-19706.09;4977830;28;46958;-75
2022/09/28 09:15:56;;;;;;;;;2.67;0.67;;;;;18.68;62.19;-19707.28;4995641;28;45314;-75
2022/09/28 09:18:27;;;;;;;;;1.00;1.00;;;;;18.78;61.53;-19709.97;4995591;28;45442;-75
2022/09/28 09:20:56;;;;;;;;;2.00;1.00;;;;;18.44;61.34;-19701.03;4995747;28;45410;-75
2022/09/28 09:23:34;;;;;;;;;0.67;0.67;;;;;18.93;60.89;-19713.97;4993542;28;47585;-75
2022/09/28 09:26:16;;;;;;;;;0.00;0.00;;;;;19.18;60.85;-19720.53;4995471;28;45339;-73
2022/09/28 09:29:08;;;;;;;;;0.33;0.33;;;;;19.40;59.50;-19726.13;4994341;28;45395;-75
2022/09/28 09:31:55;;;;;;;;;0.00;0.00;;;;;19.64;59.02;-19732.41;4995877;28;45393;-75
2022/09/28 09:34:24;;;;;;;;;0.00;0.00;;;;;19.97;57.96;-19740.94;4995483;28;45317;-75
2022/09/28 09:37:16;;;;;;;;;0.33;0.33;;;;;20.51;58.17;-19754.94;4995338;28;45326;-75
2022/09/28 09:40:21;;;;;;;;;1.33;1.33;;;;;20.56;56.93;-19756.41;4995044;28;45236;-75
2022/09/28 09:43:16;;;;;;;;;0.00;0.00;;;;;20.42;57.40;-19752.69;4995759;28;45443;-74
2022/09/28 09:45:42;;;;;;;;;1.00;1.00;;;;;20.49;56.61;-19754.41;4995127;28;46401;-75
2022/09/28 09:48:16;;;;;;;;;0.00;0.00;;;;;20.67;55.90;-19759.22;4995382;28;45380;-78
2022/09/28 09:50:57;;;;;;;;;0.00;0.00;;;;;21.07;55.25;-19769.59;4995215;28;45322;-78
2022/09/28 09:53:22;;;;;;;;;1.00;1.00;;;;;21.57;55.51;-19782.66;4995427;28;45384;-78
2022/09/28 09:55:56;;;;;;;;;0.33;0.33;;;;;21.75;54.03;-19787.19;4995071;28;47108;-79
2022/09/28 09:58:36;;;;;;;;;3.00;1.00;;;;;22.79;52.50;-19814.19;4994473;28;45479;-76
2022/09/28 10:01:11;;;;;;;;;2.00;1.00;;;;;24.07;50.00;-19847.50;4993776;28;45324;-78
2022/09/28 10:03:41;;;;;;;;;2.00;0.00;;;;;24.93;47.71;-19869.66;4977752;28;45463;-76
2022/09/28 10:06:15;;;;;;;;;0.00;0.00;;;;;25.43;46.37;-19882.63;4994775;28;45479;-76
2022/09/28 10:08:45;;;;;;;;;0.00;0.00;;;;;24.90;44.28;-19868.84;4994916;28;45452;-77
2022/09/28 10:11:20;;;;;;;;;0.00;0.00;;;;;24.25;45.17;-19852.16;4995170;28;45325;-76
2022/09/28 10:13:48;;;;;;;;;0.00;0.00;;;;;24.25;45.94;-19852.16;4995298;28;45305;-77
2022/09/28 10:16:16;;;;;;;;;2.75;0.00;;;;;23.79;45.14;-19840.22;4995017;28;46152;-76
2022/09/28 10:18:41;;;;;;;;;0.33;0.33;;;;;23.34;46.01;-19828.53;4995012;28;45458;-77
2022/09/28 10:21:14;;;;;;;;;1.00;1.00;;;;;23.25;46.72;-19826.28;4994711;28;45745;-78
2022/09/28 10:23:41;;;;;;;;;0.33;0.33;;;;;24.50;45.97;-19858.53;4994914;28;45537;-77
2022/09/28 10:26:12;;;;;;;;;0.00;0.00;;;;;24.66;44.81;-19862.75;4994652;28;46351;-77
2022/09/28 10:28:52;;;;;;;;;1.50;0.00;;;;;24.55;43.42;-19859.84;4994723;28;45446;-77
2022/09/28 10:31:38;;;;;;;;;0.25;0.25;;;;;24.10;42.95;-19848.31;4994691;28;45578;-76
2022/09/28 10:34:05;;;;;;;;;1.75;0.00;;;;;24.04;44.34;-19846.56;4994945;28;45559;-76
2022/09/28 10:36:37;;;;;;;;;0.00;0.00;;;;;24.88;43.52;-19868.47;4994317;28;45353;-76
2022/09/28 10:39:04;;;;;;;;;0.50;0.50;;;;;25.34;42.42;-19880.38;4994239;28;45480;-79
2022/09/28 10:41:31;;;;;;;;;1.00;0.00;;;;;25.17;41.74;-19875.88;4994567;28;45383;-77
2022/09/28 10:44:06;;;;;;;;;1.00;1.00;;;;;25.33;41.86;-19879.97;4994909;28;45358;-77
2022/09/28 10:46:37;;;;;;;;;0.50;0.00;;;;;25.19;41.27;-19876.53;4994386;28;45600;-76
2022/09/28 10:49:15;;;;;;;;;0.50;0.00;;;;;25.35;41.92;-19880.50;4994363;28;45491;-77
2022/09/28 10:51:53;;;;;;;;;1.00;1.00;;;;;25.52;41.50;-19885.03;4994661;28;45316;-76
2022/09/28 10:54:25;;;;;;;;;0.00;0.00;;;;;25.15;40.99;-19875.47;4994826;28;45370;-77
2022/09/28 10:56:52;;;;;;;;;0.75;0.75;;;;;24.84;42.06;-19867.41;4994514;28;46257;-76
2022/09/28 10:59:35;;;;;;;;;0.00;0.00;;;;;24.60;42.25;-19861.16;4994368;28;45323;-77
2022/09/28 11:02:15;;;;;;;;;0.00;0.00;;;;;25.20;41.26;-19876.81;4994127;28;45431;-76
2022/09/28 11:04:43;;;;;;;;;0.00;0.00;;;;;25.61;40.95;-19887.25;4994632;28;45457;-77
2022/09/28 11:07:19;;;;;;;;;0.25;0.00;;;;;25.44;40.93;-19882.91;4994244;28;46630;-77
2022/09/28 11:09:48;;;;;;;;;2.00;0.00;;;;;25.20;40.28;-19876.81;4993046;28;45365;-76
2022/09/28 11:12:17;;;;;;;;;0.00;0.00;;;;;24.82;41.19;-19866.88;4976628;28;45428;-77
2022/09/28 11:14:43;;;;;;;;;1.25;0.75;;;;;24.47;41.17;-19857.84;4994463;28;45460;-76
2022/09/28 11:17:29;;;;;;;;;0.00;0.00;;;;;24.31;41.66;-19853.75;4993931;28;46511;-76
2022/09/28 11:20:00;;;;;;;;;0.75;0.00;;;;;23.86;41.66;-19841.94;4975952;28;45464;-76
2022/09/28 11:22:36;;;;;;;;;0.00;0.00;;;;;23.95;41.96;-19844.47;4976228;28;45472;-76
2022/09/28 11:25:19;;;;;;;;;0.00;0.00;;;;;24.52;41.63;-19859.06;4994369;28;45446;-77
2022/09/28 11:27:50;;;;;;;;;0.75;0.75;;;;;24.58;40.57;-19860.78;4993607;28;45388;-76
2022/09/28 11:30:23;;;;;;;;;0.75;0.75;;;;;24.59;40.90;-19860.91;4994067;28;45352;-76
2022/09/28 11:32:51;;;;;;;;;0.50;0.50;;;;;24.21;40.69;-19851.22;4994105;28;45368;-76
2022/09/28 11:35:49;;;;;;;;;1.00;1.00;;;;;23.93;41.01;-19843.94;4994370;28;45293;-76
2022/09/28 11:38:36;;;;;;;;;0.00;0.00;;;;;23.53;42.02;-19833.56;4982902;28;47565;-76
2022/09/28 11:41:13;;;;;;;;;0.00;0.00;;;;;23.14;41.25;-19823.47;4993993;28;45464;-76
2022/09/28 11:43:57;;;;;;;;;0.00;0.00;;;;;22.73;42.50;-19812.72;4993655;28;45449;-76
2022/09/28 11:46:44;;;;;;;;;0.00;0.00;;;;;22.50;43.44;-19806.72;4994124;28;45384;-77
2022/09/28 11:49:25;;;;;;;;;0.00;0.00;;;;;22.18;43.29;-19798.50;4975671;28;47112;-76
2022/09/28 11:51:56;;;;;;;;;0.00;0.00;;;;;22.02;43.43;-19794.38;4993729;28;45422;-77